sensor_id;sensor_type;location;lat;lon;timestamp;pressure;altitude;pressure_sealevel;temperature;humidity
41596;BME280;27283;52.504;13.358;2023-07-29T00:00:19;100454.47;;;18.27;100.00
41596;BME280;27283;52.504;13.358;2023-07-29T00:03:11;100458.09;;;18.21;100.00
41596;BME280;27283;52.504;13.358;2023-07-29T00:05:48;100452.88;;;18.19;100.00
41596;BME280;27283;52.504;13.358;2023-07-29T00:08:22;100447.88;;;18.16;100.00
41596;BME280;27283;52.504;13.358;2023-07-29T00:10:57;100455.94;;;18.04;100.00
41596;BME280;27283;52.504;13.358;2023-07-29T00:13:29;100451.63;;;17.97;100.00
41596;BME280;27283;52.504;13.358;2023-07-29T00:16:04;100452.72;;;17.89;100.00
41596;BME280;27283;52.504;13.358;2023-07-29T00:18:40;100448.03;;;17.96;100.00
41596;BME280;27283;52.504;13.358;2023-07-29T00:21:16;100453.72;;;17.95;100.00
41596;BME280;27283;52.504;13.358;2023-07-29T00:23:48;100446.41;;;17.95;100.00
41596;BME280;27283;52.504;13.358;2023-07-29T00:26:23;100442.88;;;17.88;100.00
41596;BME280;27283;52.504;13.358;2023-07-29T00:28:58;100441.84;;;17.89;100.00
41596;BME280;27283;52.504;13.358;2023-07-29T00:31:30;100445.84;;;17.80;100.00
41596;BME280;27283;52.504;13.358;2023-07-29T00:34:02;100437.25;;;17.83;100.00
41596;BME280;27283;52.504;13.358;2023-07-29T00:36:34;100438.97;;;17.77;100.00
41596;BME280;27283;52.504;13.358;2023-07-29T00:39:06;100442.97;;;17.75;100.00
41596;BME280;27283;52.504;13.358;2023-07-29T00:41:41;100443.41;;;17.71;100.00
41596;BME280;27283;52.504;13.358;2023-07-29T00:44:13;100447.00;;;17.65;100.00
41596;BME280;27283;52.504;13.358;2023-07-29T00:46:46;100446.22;;;17.58;100.00
41596;BME280;27283;52.504;13.358;2023-07-29T00:49:19;100446.00;;;17.60;100.00
41596;BME280;27283;52.504;13.358;2023-07-29T00:51:51;100442.75;;;17.44;100.00
41596;BME280;27283;52.504;13.358;2023-07-29T00:54:23;100451.28;;;17.48;100.00
41596;BME280;27283;52.504;13.358;2023-07-29T00:56:58;100444.38;;;17.52;100.00
41596;BME280;27283;52.504;13.358;2023-07-29T00:59:31;100437.50;;;17.49;100.00
41596;BME280;27283;52.504;13.358;2023-07-29T01:02:04;100435.84;;;17.48;100.00
41596;BME280;27283;52.504;13.358;2023-07-29T01:04:38;100438.56;;;17.48;100.00
41596;BME280;27283;52.504;13.358;2023-07-29T01:07:16;100427.03;;;17.53;100.00
41596;BME280;27283;52.504;13.358;2023-07-29T01:09:58;100426.97;;;17.60;100.00
41596;BME280;27283;52.504;13.358;2023-07-29T01:12:44;100416.53;;;17.57;100.00
41596;BME280;27283;52.504;13.358;2023-07-29T01:15:22;100420.81;;;17.39;100.00
41596;BME280;27283;52.504;13.358;2023-07-29T01:18:08;100421.84;;;17.45;100.00
41596;BME280;27283;52.504;13.358;2023-07-29T01:20:44;100423.31;;;17.41;100.00
41596;BME280;27283;52.504;13.358;2023-07-29T01:23:29;100413.09;;;17.43;100.00
41596;BME280;27283;52.504;13.358;2023-07-29T01:26:02;100402.44;;;17.41;100.00
41596;BME280;27283;52.504;13.358;2023-07-29T01:28:35;100400.53;;;17.42;100.00
41596;BME280;27283;52.504;13.358;2023-07-29T01:31:14;100394.09;;;17.36;100.00
41596;BME280;27283;52.504;13.358;2023-07-29T01:33:56;100400.81;;;17.33;100.00
41596;BME280;27283;52.504;13.358;2023-07-29T01:36:32;100397.25;;;17.33;100.00
41596;BME280;27283;52.504;13.358;2023-07-29T01:39:11;100407.28;;;17.32;100.00
41596;BME280;27283;52.504;13.358;2023-07-29T01:41:44;100412.13;;;17.30;100.00
41596;BME280;27283;52.504;13.358;2023-07-29T01:44:18;100409.19;;;17.32;100.00
41596;BME280;27283;52.504;13.358;2023-07-29T01:46:51;100413.78;;;17.31;100.00
41596;BME280;27283;52.504;13.358;2023-07-29T01:49:24;100421.31;;;17.29;100.00
41596;BME280;27283;52.504;13.358;2023-07-29T01:51:56;100414.19;;;17.28;100.00
41596;BME280;27283;52.504;13.358;2023-07-29T01:54:31;100414.63;;;17.32;100.00
41596;BME280;27283;52.504;13.358;2023-07-29T01:57:04;100419.63;;;17.28;100.00
41596;BME280;27283;52.504;13.358;2023-07-29T01:59:36;100414.88;;;17.24;100.00
41596;BME280;27283;52.504;13.358;2023-07-29T02:02:09;100419.69;;;17.22;100.00
41596;BME280;27283;52.504;13.358;2023-07-29T02:04:42;100422.63;;;17.20;100.00
41596;BME280;27283;52.504;13.358;2023-07-29T02:07:14;100415.53;;;17.19;100.00
41596;BME280;27283;52.504;13.358;2023-07-29T02:09:50;100417.22;;;17.13;100.00
41596;BME280;27283;52.504;13.358;2023-07-29T02:12:23;100422.44;;;17.15;100.00
41596;BME280;27283;52.504;13.358;2023-07-29T02:14:55;100420.34;;;17.17;100.00
41596;BME280;27283;52.504;13.358;2023-07-29T02:17:28;100420.34;;;17.17;100.00
41596;BME280;27283;52.504;13.358;2023-07-29T02:20:01;100417.66;;;17.10;100.00
41596;BME280;27283;52.504;13.358;2023-07-29T02:22:36;100414.50;;;17.13;100.00
41596;BME280;27283;52.504;13.358;2023-07-29T02:25:11;100415.34;;;17.14;100.00
41596;BME280;27283;52.504;13.358;2023-07-29T02:27:45;100414.03;;;17.23;100.00
41596;BME280;27283;52.504;13.358;2023-07-29T02:30:17;100412.38;;;17.22;100.00
41596;BME280;27283;52.504;13.358;2023-07-29T02:32:50;100416.41;;;17.13;100.00
41596;BME280;27283;52.504;13.358;2023-07-29T02:35:22;100413.25;;;17.16;100.00
41596;BME280;27283;52.504;13.358;2023-07-29T02:37:55;100416.41;;;17.13;100.00
41596;BME280;27283;52.504;13.358;2023-07-29T02:40:34;100410.78;;;17.08;100.00
41596;BME280;27283;52.504;13.358;2023-07-29T02:43:07;100413.06;;;17.11;100.00
41596;BME280;27283;52.504;13.358;2023-07-29T02:45:40;100407.22;;;17.07;100.00
41596;BME280;27283;52.504;13.358;2023-07-29T02:48:17;100403.69;;;17.07;100.00
41596;BME280;27283;52.504;13.358;2023-07-29T02:50:52;100409.63;;;16.83;100.00
41596;BME280;27283;52.504;13.358;2023-07-29T02:53:27;100408.38;;;16.79;100.00
41596;BME280;27283;52.504;13.358;2023-07-29T02:56:03;100405.22;;;16.96;100.00
41596;BME280;27283;52.504;13.358;2023-07-29T02:58:41;100403.31;;;16.96;100.00
41596;BME280;27283;52.504;13.358;2023-07-29T03:01:18;100407.06;;;17.02;100.00
41596;BME280;27283;52.504;13.358;2023-07-29T03:03:56;100410.63;;;16.96;100.00
41596;BME280;27283;52.504;13.358;2023-07-29T03:06:29;100412.31;;;16.97;100.00
41596;BME280;27283;52.504;13.358;2023-07-29T03:09:02;100420.63;;;17.02;100.00
41596;BME280;27283;52.504;13.358;2023-07-29T03:11:37;100418.75;;;17.03;100.00
41596;BME280;27283;52.504;13.358;2023-07-29T03:14:09;100414.16;;;17.03;100.00
41596;BME280;27283;52.504;13.358;2023-07-29T03:16:42;100416.47;;;16.99;100.00
41596;BME280;27283;52.504;13.358;2023-07-29T03:19:15;100411.66;;;17.02;100.00
41596;BME280;27283;52.504;13.358;2023-07-29T03:21:47;100408.13;;;16.94;100.00
41596;BME280;27283;52.504;13.358;2023-07-29T03:24:20;100408.09;;;17.01;100.00
41596;BME280;27283;52.504;13.358;2023-07-29T03:26:57;100413.50;;;17.08;100.00
41596;BME280;27283;52.504;13.358;2023-07-29T03:29:32;100410.81;;;17.01;100.00
41596;BME280;27283;52.504;13.358;2023-07-29T03:32:05;100406.22;;;17.02;100.00
41596;BME280;27283;52.504;13.358;2023-07-29T03:34:37;100397.88;;;17.03;100.00
41596;BME280;27283;52.504;13.358;2023-07-29T03:37:10;100401.56;;;17.09;100.00
41596;BME280;27283;52.504;13.358;2023-07-29T03:39:42;100404.50;;;17.07;100.00
41596;BME280;27283;52.504;13.358;2023-07-29T03:42:18;100399.50;;;17.11;100.00
41596;BME280;27283;52.504;13.358;2023-07-29T03:44:50;100402.44;;;17.09;100.00
41596;BME280;27283;52.504;13.358;2023-07-29T03:47:22;100400.31;;;17.11;100.00
41596;BME280;27283;52.504;13.358;2023-07-29T03:49:54;100402.44;;;17.09;100.00
41596;BME280;27283;52.504;13.358;2023-07-29T03:52:30;100393.63;;;17.07;100.00
41596;BME280;27283;52.504;13.358;2023-07-29T03:55:03;100394.66;;;17.13;100.00
41596;BME280;27283;52.504;13.358;2023-07-29T03:57:38;100389.66;;;17.10;100.00
41596;BME280;27283;52.504;13.358;2023-07-29T04:00:11;100399.66;;;17.16;100.00
41596;BME280;27283;52.504;13.358;2023-07-29T04:02:43;100400.47;;;17.16;100.00
41596;BME280;27283;52.504;13.358;2023-07-29T04:05:16;100391.69;;;17.21;100.00
41596;BME280;27283;52.504;13.358;2023-07-29T04:07:48;100395.69;;;17.18;100.00
41596;BME280;27283;52.504;13.358;2023-07-29T04:10:22;100400.22;;;17.25;100.00
41596;BME280;27283;52.504;13.358;2023-07-29T04:12:57;100389.75;;;17.28;100.00
41596;BME280;27283;52.504;13.358;2023-07-29T04:15:33;100388.53;;;17.24;100.00
41596;BME280;27283;52.504;13.358;2023-07-29T04:18:17;100382.19;;;17.37;100.00
41596;BME280;27283;52.504;13.358;2023-07-29T04:20:50;100394.88;;;17.43;100.00
41596;BME280;27283;52.504;13.358;2023-07-29T04:23:25;100384.41;;;17.47;100.00
41596;BME280;27283;52.504;13.358;2023-07-29T04:26:01;100383.69;;;17.58;100.00
41596;BME280;27283;52.504;13.358;2023-07-29T04:29:01;100379.75;;;17.54;100.00
41596;BME280;27283;52.504;13.358;2023-07-29T04:31:33;100379.25;;;17.64;100.00
41596;BME280;27283;52.504;13.358;2023-07-29T04:34:06;100389.13;;;17.83;100.00
41596;BME280;27283;52.504;13.358;2023-07-29T04:36:38;100385.03;;;17.99;100.00
41596;BME280;27283;52.504;13.358;2023-07-29T04:39:11;100387.53;;;18.01;100.00
41596;BME280;27283;52.504;13.358;2023-07-29T04:41:43;100396.09;;;18.04;100.00
41596;BME280;27283;52.504;13.358;2023-07-29T04:44:18;100399.72;;;18.17;100.00
41596;BME280;27283;52.504;13.358;2023-07-29T04:46:50;100397.69;;;18.12;100.00
41596;BME280;27283;52.504;13.358;2023-07-29T04:49:23;100400.31;;;18.00;100.00
41596;BME280;27283;52.504;13.358;2023-07-29T04:51:55;100396.34;;;17.96;100.00
41596;BME280;27283;52.504;13.358;2023-07-29T04:54:28;100389.66;;;18.17;100.00
41596;BME280;27283;52.504;13.358;2023-07-29T04:57:00;100393.69;;;18.33;100.00
41596;BME280;27283;52.504;13.358;2023-07-29T04:59:35;100401.03;;;18.51;100.00
41596;BME280;27283;52.504;13.358;2023-07-29T05:02:08;100394.69;;;18.57;100.00
41596;BME280;27283;52.504;13.358;2023-07-29T05:04:45;100395.94;;;18.73;100.00
41596;BME280;27283;52.504;13.358;2023-07-29T05:07:20;100400.34;;;18.93;100.00
41596;BME280;27283;52.504;13.358;2023-07-29T05:09:52;100390.66;;;18.78;100.00
41596;BME280;27283;52.504;13.358;2023-07-29T05:12:24;100388.22;;;18.70;100.00
41596;BME280;27283;52.504;13.358;2023-07-29T05:15:08;100396.13;;;18.60;100.00
41596;BME280;27283;52.504;13.358;2023-07-29T05:17:41;100391.34;;;18.55;100.00
41596;BME280;27283;52.504;13.358;2023-07-29T05:20:16;100389.38;;;18.63;100.00
41596;BME280;27283;52.504;13.358;2023-07-29T05:22:49;100386.88;;;18.80;100.00
41596;BME280;27283;52.504;13.358;2023-07-29T05:25:23;100382.50;;;18.78;100.00
41596;BME280;27283;52.504;13.358;2023-07-29T05:27:55;100382.25;;;18.99;100.00
41596;BME280;27283;52.504;13.358;2023-07-29T05:30:37;100384.63;;;19.37;100.00
41596;BME280;27283;52.504;13.358;2023-07-29T05:33:16;100388.81;;;19.52;100.00
41596;BME280;27283;52.504;13.358;2023-07-29T05:35:51;100384.81;;;19.66;100.00
41596;BME280;27283;52.504;13.358;2023-07-29T05:38:24;100389.47;;;19.77;100.00
41596;BME280;27283;52.504;13.358;2023-07-29T05:40:56;100390.50;;;19.64;100.00
41596;BME280;27283;52.504;13.358;2023-07-29T05:43:29;100392.63;;;19.51;100.00
41596;BME280;27283;52.504;13.358;2023-07-29T05:46:05;100391.03;;;19.43;100.00
41596;BME280;27283;52.504;13.358;2023-07-29T05:48:37;100389.31;;;19.72;100.00
41596;BME280;27283;52.504;13.358;2023-07-29T05:51:10;100394.91;;;21.01;96.18
41596;BME280;27283;52.504;13.358;2023-07-29T05:53:42;100381.78;;;21.61;89.06
41596;BME280;27283;52.504;13.358;2023-07-29T05:56:14;100392.06;;;22.65;85.19
41596;BME280;27283;52.504;13.358;2023-07-29T05:58:47;100380.19;;;22.82;80.96
41596;BME280;27283;52.504;13.358;2023-07-29T06:01:22;100374.72;;;24.01;76.26
41596;BME280;27283;52.504;13.358;2023-07-29T06:03:55;100366.91;;;24.20;72.65
41596;BME280;27283;52.504;13.358;2023-07-29T06:06:28;100361.78;;;24.45;73.29
41596;BME280;27283;52.504;13.358;2023-07-29T06:09:04;100356.75;;;25.00;69.21
41596;BME280;27283;52.504;13.358;2023-07-29T06:11:37;100357.50;;;24.64;70.22
41596;BME280;27283;52.504;13.358;2023-07-29T06:14:09;100343.78;;;24.16;72.96
41596;BME280;27283;52.504;13.358;2023-07-29T06:16:44;100354.25;;;24.24;72.95
41596;BME280;27283;52.504;13.358;2023-07-29T06:19:18;100344.91;;;24.89;69.70
41596;BME280;27283;52.504;13.358;2023-07-29T06:21:55;100349.84;;;24.82;71.10
41596;BME280;27283;52.504;13.358;2023-07-29T06:24:27;100349.13;;;25.33;68.49
41596;BME280;27283;52.504;13.358;2023-07-29T06:27:00;100346.63;;;25.88;65.44
41596;BME280;27283;52.504;13.358;2023-07-29T06:29:32;100352.69;;;25.90;66.14
41596;BME280;27283;52.504;13.358;2023-07-29T06:32:10;100358.75;;;25.56;66.83
41596;BME280;27283;52.504;13.358;2023-07-29T06:34:57;100350.25;;;25.52;66.66
41596;BME280;27283;52.504;13.358;2023-07-29T06:37:29;100356.19;;;24.92;71.53
41596;BME280;27283;52.504;13.358;2023-07-29T06:40:06;100363.59;;;24.76;73.24
41596;BME280;27283;52.504;13.358;2023-07-29T06:42:39;100366.91;;;24.84;73.43
41596;BME280;27283;52.504;13.358;2023-07-29T06:45:11;100361.41;;;24.84;71.59
41596;BME280;27283;52.504;13.358;2023-07-29T06:47:51;100369.19;;;25.23;71.77
41596;BME280;27283;52.504;13.358;2023-07-29T06:50:23;100367.31;;;25.34;70.15
41596;BME280;27283;52.504;13.358;2023-07-29T06:53:14;100365.88;;;25.21;73.34
41596;BME280;27283;52.504;13.358;2023-07-29T06:55:46;100368.88;;;25.09;71.73
41596;BME280;27283;52.504;13.358;2023-07-29T06:58:19;100367.78;;;25.15;70.87
41596;BME280;27283;52.504;13.358;2023-07-29T07:00:51;100375.97;;;24.79;73.32
41596;BME280;27283;52.504;13.358;2023-07-29T07:03:28;100369.50;;;24.48;73.28
41596;BME280;27283;52.504;13.358;2023-07-29T07:06:00;100381.38;;;24.11;77.06
41596;BME280;27283;52.504;13.358;2023-07-29T07:08:35;100376.13;;;24.04;77.98
41596;BME280;27283;52.504;13.358;2023-07-29T07:11:07;100373.66;;;24.02;75.56
41596;BME280;27283;52.504;13.358;2023-07-29T07:13:40;100367.47;;;24.28;75.97
41596;BME280;27283;52.504;13.358;2023-07-29T07:16:12;100376.88;;;23.94;75.69
41596;BME280;27283;52.504;13.358;2023-07-29T07:18:47;100376.44;;;23.10;79.11
41596;BME280;27283;52.504;13.358;2023-07-29T07:21:19;100377.41;;;22.77;83.58
41596;BME280;27283;52.504;13.358;2023-07-29T07:23:54;100379.66;;;23.07;84.43
41596;BME280;27283;52.504;13.358;2023-07-29T07:26:27;100377.09;;;23.23;82.36
41596;BME280;27283;52.504;13.358;2023-07-29T07:28:59;100374.94;;;23.57;78.17
41596;BME280;27283;52.504;13.358;2023-07-29T07:31:33;100374.69;;;23.59;79.55
41596;BME280;27283;52.504;13.358;2023-07-29T07:34:10;100378.25;;;23.05;79.72
41596;BME280;27283;52.504;13.358;2023-07-29T07:36:42;100384.41;;;22.68;81.07
41596;BME280;27283;52.504;13.358;2023-07-29T07:39:14;100371.53;;;22.46;83.33
41596;BME280;27283;52.504;13.358;2023-07-29T07:41:46;100371.22;;;22.64;84.05
41596;BME280;27283;52.504;13.358;2023-07-29T07:44:18;100358.50;;;23.03;84.10
41596;BME280;27283;52.504;13.358;2023-07-29T07:46:50;100355.75;;;22.75;84.15
41596;BME280;27283;52.504;13.358;2023-07-29T07:49:25;100359.31;;;22.76;83.24
41596;BME280;27283;52.504;13.358;2023-07-29T07:51:57;100353.38;;;23.11;84.84
41596;BME280;27283;52.504;13.358;2023-07-29T07:54:32;100351.75;;;23.75;79.28
41596;BME280;27283;52.504;13.358;2023-07-29T07:57:05;100338.34;;;24.27;73.75
41596;BME280;27283;52.504;13.358;2023-07-29T07:59:37;100342.03;;;24.48;74.81
41596;BME280;27283;52.504;13.358;2023-07-29T08:02:12;100344.41;;;25.02;72.75
41596;BME280;27283;52.504;13.358;2023-07-29T08:04:46;100341.41;;;25.81;69.57
41596;BME280;27283;52.504;13.358;2023-07-29T08:07:18;100339.50;;;25.71;71.00
41596;BME280;27283;52.504;13.358;2023-07-29T08:09:51;100341.38;;;26.07;67.83
41596;BME280;27283;52.504;13.358;2023-07-29T08:12:23;100345.84;;;25.56;66.94
41596;BME280;27283;52.504;13.358;2023-07-29T08:14:55;100336.47;;;25.68;70.14
41596;BME280;27283;52.504;13.358;2023-07-29T08:17:27;100343.03;;;26.03;68.79
41596;BME280;27283;52.504;13.358;2023-07-29T08:20:02;100338.88;;;26.15;64.54
41596;BME280;27283;52.504;13.358;2023-07-29T08:22:35;100336.16;;;24.97;70.69
41596;BME280;27283;52.504;13.358;2023-07-29T08:25:08;100338.84;;;24.82;70.21
41596;BME280;27283;52.504;13.358;2023-07-29T08:27:40;100333.88;;;24.79;71.61
41596;BME280;27283;52.504;13.358;2023-07-29T08:30:28;100330.97;;;25.32;69.21
41596;BME280;27283;52.504;13.358;2023-07-29T08:33:08;100330.66;;;25.79;67.01
41596;BME280;27283;52.504;13.358;2023-07-29T08:35:44;100319.06;;;25.88;69.42
41596;BME280;27283;52.504;13.358;2023-07-29T08:38:20;100317.75;;;25.08;69.63
41596;BME280;27283;52.504;13.358;2023-07-29T08:41:03;100330.34;;;24.88;73.30
41596;BME280;27283;52.504;13.358;2023-07-29T08:43:38;100318.66;;;24.50;72.44
41596;BME280;27283;52.504;13.358;2023-07-29T08:46:11;100322.75;;;24.42;75.37
41596;BME280;27283;52.504;13.358;2023-07-29T08:48:46;100319.50;;;24.51;76.71
41596;BME280;27283;52.504;13.358;2023-07-29T08:51:24;100321.38;;;24.40;76.02
41596;BME280;27283;52.504;13.358;2023-07-29T08:53:56;100311.47;;;24.39;77.74
41596;BME280;27283;52.504;13.358;2023-07-29T08:56:30;100322.25;;;24.51;76.93
41596;BME280;27283;52.504;13.358;2023-07-29T08:59:03;100321.38;;;24.40;76.04
41596;BME280;27283;52.504;13.358;2023-07-29T09:01:38;100320.91;;;24.58;74.26
41596;BME280;27283;52.504;13.358;2023-07-29T09:04:12;100318.50;;;24.88;72.35
41596;BME280;27283;52.504;13.358;2023-07-29T09:06:48;100313.00;;;24.88;74.00
41596;BME280;27283;52.504;13.358;2023-07-29T09:09:21;100310.53;;;24.76;74.71
41596;BME280;27283;52.504;13.358;2023-07-29T09:11:54;100312.47;;;24.86;73.74
41596;BME280;27283;52.504;13.358;2023-07-29T09:14:26;100319.84;;;24.65;73.59
41596;BME280;27283;52.504;13.358;2023-07-29T09:17:00;100311.09;;;24.78;73.03
41596;BME280;27283;52.504;13.358;2023-07-29T09:19:33;100304.78;;;24.93;75.28
41596;BME280;27283;52.504;13.358;2023-07-29T09:34:58;100286.66;;;25.64;71.11
41596;BME280;27283;52.504;13.358;2023-07-29T09:37:33;100282.00;;;25.34;68.82
41596;BME280;27283;52.504;13.358;2023-07-29T09:40:07;100284.97;;;25.73;69.94
41596;BME280;27283;52.504;13.358;2023-07-29T09:42:49;100277.81;;;25.77;65.77
41596;BME280;27283;52.504;13.358;2023-07-29T09:45:25;100271.50;;;25.61;65.72
41596;BME280;27283;52.504;13.358;2023-07-29T09:47:58;100284.72;;;25.28;71.06
41596;BME280;27283;52.504;13.358;2023-07-29T09:50:50;100272.06;;;24.97;73.72
41596;BME280;27283;52.504;13.358;2023-07-29T09:53:25;100263.53;;;25.39;70.34
41596;BME280;27283;52.504;13.358;2023-07-29T09:56:00;100258.84;;;25.55;69.10
41596;BME280;27283;52.504;13.358;2023-07-29T09:58:38;100264.16;;;26.27;65.54
41596;BME280;27283;52.504;13.358;2023-07-29T10:01:12;100262.47;;;26.37;64.42
41596;BME280;27283;52.504;13.358;2023-07-29T10:03:46;100263.94;;;27.08;61.12
41596;BME280;27283;52.504;13.358;2023-07-29T10:06:22;100254.78;;;27.18;60.06
41596;BME280;27283;52.504;13.358;2023-07-29T10:08:55;100252.88;;;27.13;59.22
41596;BME280;27283;52.504;13.358;2023-07-29T10:11:28;100251.91;;;27.28;57.45
41596;BME280;27283;52.504;13.358;2023-07-29T10:14:02;100239.94;;;27.09;58.23
41596;BME280;27283;52.504;13.358;2023-07-29T10:16:37;100254.53;;;26.75;59.57
41596;BME280;27283;52.504;13.358;2023-07-29T10:19:17;100243.66;;;26.49;61.21
41596;BME280;27283;52.504;13.358;2023-07-29T10:21:55;100244.09;;;26.72;60.03
41596;BME280;27283;52.504;13.358;2023-07-29T10:24:30;100235.63;;;26.52;65.44
41596;BME280;27283;52.504;13.358;2023-07-29T10:27:06;100232.84;;;26.03;61.87
41596;BME280;27283;52.504;13.358;2023-07-29T10:29:39;100218.34;;;25.71;67.76
41596;BME280;27283;52.504;13.358;2023-07-29T10:32:17;100220.84;;;25.68;65.36
41596;BME280;27283;52.504;13.358;2023-07-29T10:34:55;100216.84;;;26.15;62.30
41596;BME280;27283;52.504;13.358;2023-07-29T10:37:30;100217.97;;;26.59;59.66
41596;BME280;27283;52.504;13.358;2023-07-29T10:40:07;100212.88;;;26.76;58.65
41596;BME280;27283;52.504;13.358;2023-07-29T10:42:59;100212.41;;;26.64;59.34
41596;BME280;27283;52.504;13.358;2023-07-29T10:45:42;100213.50;;;26.68;58.73
41596;BME280;27283;52.504;13.358;2023-07-29T10:48:40;100189.13;;;26.41;60.00
41596;BME280;27283;52.504;13.358;2023-07-29T10:51:36;100172.38;;;26.32;60.31
41596;BME280;27283;52.504;13.358;2023-07-29T10:54:13;100186.16;;;26.32;61.96
41596;BME280;27283;52.504;13.358;2023-07-29T10:56:49;100189.53;;;26.18;62.50
41596;BME280;27283;52.504;13.358;2023-07-29T10:59:32;100195.44;;;25.86;61.84
41596;BME280;27283;52.504;13.358;2023-07-29T11:02:14;100205.09;;;25.83;62.58
41596;BME280;27283;52.504;13.358;2023-07-29T11:04:50;100209.34;;;25.19;65.11
41596;BME280;27283;52.504;13.358;2023-07-29T11:07:25;100219.00;;;24.96;67.88
41596;BME280;27283;52.504;13.358;2023-07-29T11:10:05;100219.22;;;24.58;69.98
41596;BME280;27283;52.504;13.358;2023-07-29T11:12:40;100238.09;;;24.29;72.78
41596;BME280;27283;52.504;13.358;2023-07-29T11:15:18;100265.75;;;20.77;95.91
41596;BME280;27283;52.504;13.358;2023-07-29T11:17:52;100257.69;;;19.18;100.00
41596;BME280;27283;52.504;13.358;2023-07-29T11:20:26;100246.28;;;19.09;100.00
41596;BME280;27283;52.504;13.358;2023-07-29T11:23:06;100254.78;;;19.01;100.00
41596;BME280;27283;52.504;13.358;2023-07-29T11:25:41;100247.34;;;19.08;100.00
41596;BME280;27283;52.504;13.358;2023-07-29T11:28:19;100247.13;;;19.33;100.00
41596;BME280;27283;52.504;13.358;2023-07-29T11:30:51;100238.00;;;19.39;100.00
41596;BME280;27283;52.504;13.358;2023-07-29T11:33:25;100237.44;;;19.49;100.00
41596;BME280;27283;52.504;13.358;2023-07-29T11:35:57;100235.78;;;19.60;100.00
41596;BME280;27283;52.504;13.358;2023-07-29T11:38:30;100238.00;;;19.75;100.00
41596;BME280;27283;52.504;13.358;2023-07-29T11:41:08;100227.00;;;19.81;100.00
41596;BME280;27283;52.504;13.358;2023-07-29T11:43:40;100226.59;;;19.90;100.00
41596;BME280;27283;52.504;13.358;2023-07-29T11:46:12;100220.66;;;19.93;100.00
41596;BME280;27283;52.504;13.358;2023-07-29T11:48:45;100232.44;;;19.81;100.00
41596;BME280;27283;52.504;13.358;2023-07-29T11:51:17;100232.44;;;19.93;100.00
41596;BME280;27283;52.504;13.358;2023-07-29T11:53:49;100224.13;;;19.88;100.00
41596;BME280;27283;52.504;13.358;2023-07-29T11:56:27;100220.16;;;20.08;100.00
41596;BME280;27283;52.504;13.358;2023-07-29T11:59:04;100212.56;;;20.10;100.00
41596;BME280;27283;52.504;13.358;2023-07-29T12:01:36;100211.72;;;20.09;100.00
41596;BME280;27283;52.504;13.358;2023-07-29T12:04:09;100213.97;;;20.12;100.00
41596;BME280;27283;52.504;13.358;2023-07-29T12:06:41;100212.38;;;20.28;100.00
41596;BME280;27283;52.504;13.358;2023-07-29T12:09:14;100216.00;;;20.46;100.00
41596;BME280;27283;52.504;13.358;2023-07-29T12:11:51;100231.16;;;20.53;100.00
41596;BME280;27283;52.504;13.358;2023-07-29T12:14:26;100228.91;;;20.50;100.00
41596;BME280;27283;52.504;13.358;2023-07-29T12:17:00;100230.72;;;20.45;100.00
41596;BME280;27283;52.504;13.358;2023-07-29T12:19:35;100230.31;;;20.53;100.00
41596;BME280;27283;52.504;13.358;2023-07-29T12:22:09;100224.09;;;20.58;100.00
41596;BME280;27283;52.504;13.358;2023-07-29T12:24:42;100222.81;;;20.60;100.00
41596;BME280;27283;52.504;13.358;2023-07-29T12:27:17;100228.72;;;20.69;100.00
41596;BME280;27283;52.504;13.358;2023-07-29T12:29:52;100224.69;;;20.71;100.00
41596;BME280;27283;52.504;13.358;2023-07-29T12:32:26;100235.94;;;20.75;100.00
41596;BME280;27283;52.504;13.358;2023-07-29T12:34:59;100227.09;;;20.85;100.00
41596;BME280;27283;52.504;13.358;2023-07-29T12:37:34;100234.44;;;20.84;100.00
41596;BME280;27283;52.504;13.358;2023-07-29T12:40:19;100230.59;;;21.14;100.00
41596;BME280;27283;52.504;13.358;2023-07-29T12:42:57;100227.41;;;21.22;100.00
41596;BME280;27283;52.504;13.358;2023-07-29T12:45:36;100230.06;;;21.68;100.00
41596;BME280;27283;52.504;13.358;2023-07-29T12:48:11;100218.94;;;21.97;100.00
41596;BME280;27283;52.504;13.358;2023-07-29T12:50:46;100217.09;;;22.03;100.00
41596;BME280;27283;52.504;13.358;2023-07-29T12:53:23;100192.41;;;22.25;100.00
41596;BME280;27283;52.504;13.358;2023-07-29T12:55:56;100197.22;;;22.35;100.00
41596;BME280;27283;52.504;13.358;2023-07-29T12:58:32;100207.66;;;22.38;100.00
41596;BME280;27283;52.504;13.358;2023-07-29T13:01:08;100190.69;;;22.19;100.00
41596;BME280;27283;52.504;13.358;2023-07-29T13:04:06;100200.34;;;21.77;100.00
41596;BME280;27283;52.504;13.358;2023-07-29T13:06:41;100198.59;;;21.71;100.00
41596;BME280;27283;52.504;13.358;2023-07-29T13:09:13;100197.41;;;21.84;100.00
41596;BME280;27283;52.504;13.358;2023-07-29T13:11:46;100204.81;;;21.83;100.00
41596;BME280;27283;52.504;13.358;2023-07-29T13:14:21;100215.19;;;22.03;100.00
41596;BME280;27283;52.504;13.358;2023-07-29T13:16:55;100210.50;;;22.26;100.00
41596;BME280;27283;52.504;13.358;2023-07-29T13:19:30;100220.47;;;22.32;100.00
41596;BME280;27283;52.504;13.358;2023-07-29T13:22:05;100211.38;;;22.54;100.00
41596;BME280;27283;52.504;13.358;2023-07-29T13:24:37;100212.34;;;22.70;99.83